sensor_id;sensor_type;location;lat;lon;timestamp;pressure;altitude;pressure_sealevel;temperature;humidity
33795;BME280;51430;52.242;21.118;2022-08-30T00:02:18;100485.16;;;18.61;81.53
33795;BME280;51430;52.242;21.118;2022-08-30T00:04:47;100485.42;;;18.62;81.64
33795;BME280;51430;52.242;21.118;2022-08-30T00:07:15;100485.26;;;18.65;81.53
33795;BME280;51430;52.242;21.118;2022-08-30T00:09:43;100486.66;;;18.61;81.85
33795;BME280;51430;52.242;21.118;2022-08-30T00:12:11;100490.01;;;18.66;81.80
33795;BME280;51430;52.242;21.118;2022-08-30T00:14:39;100485.13;;;18.60;81.87
33795;BME280;51430;52.242;21.118;2022-08-30T00:17:07;100483.17;;;18.67;81.96
33795;BME280;51430;52.242;21.118;2022-08-30T00:19:35;100485.39;;;18.55;82.29
33795;BME280;51430;52.242;21.118;2022-08-30T00:22:05;100487.08;;;18.50;82.35
33795;BME280;51430;52.242;21.118;2022-08-30T00:24:34;100487.56;;;18.47;82.97
33795;BME280;51430;52.242;21.118;2022-08-30T00:27:02;100486.11;;;18.54;82.76
33795;BME280;51430;52.242;21.118;2022-08-30T00:29:30;100483.27;;;18.51;82.71
33795;BME280;51430;52.242;21.118;2022-08-30T00:31:58;100482.59;;;18.49;82.94
33795;BME280;51430;52.242;21.118;2022-08-30T00:34:27;100482.51;;;18.60;82.79
33795;BME280;51430;52.242;21.118;2022-08-30T00:36:56;100482.04;;;18.53;82.87
33795;BME280;51430;52.242;21.118;2022-08-30T00:39:24;100483.30;;;18.46;84.24
33795;BME280;51430;52.242;21.118;2022-08-30T00:41:52;100481.23;;;18.47;85.33
33795;BME280;51430;52.242;21.118;2022-08-30T00:44:19;100482.42;;;18.48;85.68
33795;BME280;51430;52.242;21.118;2022-08-30T00:46:47;100482.48;;;18.41;85.81
33795;BME280;51430;52.242;21.118;2022-08-30T00:49:15;100479.45;;;18.49;85.62
33795;BME280;51430;52.242;21.118;2022-08-30T00:51:43;100476.80;;;18.46;85.63
33795;BME280;51430;52.242;21.118;2022-08-30T00:54:11;100478.59;;;18.37;86.12
33795;BME280;51430;52.242;21.118;2022-08-30T00:56:39;100482.16;;;18.45;85.84
33795;BME280;51430;52.242;21.118;2022-08-30T00:59:07;100480.83;;;18.41;85.88
33795;BME280;51430;52.242;21.118;2022-08-30T01:01:37;100480.55;;;18.39;86.38
33795;BME280;51430;52.242;21.118;2022-08-30T01:04:07;100481.16;;;18.28;86.71
33795;BME280;51430;52.242;21.118;2022-08-30T01:06:36;100484.37;;;18.19;87.16
33795;BME280;51430;52.242;21.118;2022-08-30T01:09:07;100482.42;;;18.19;87.05
33795;BME280;51430;52.242;21.118;2022-08-30T01:11:36;100482.49;;;18.14;87.45
33795;BME280;51430;52.242;21.118;2022-08-30T01:14:05;100484.02;;;18.08;87.68
33795;BME280;51430;52.242;21.118;2022-08-30T01:16:38;100483.43;;;18.10;87.42
33795;BME280;51430;52.242;21.118;2022-08-30T01:21:56;100489.48;;;17.98;88.14
33795;BME280;51430;52.242;21.118;2022-08-30T01:24:28;100493.11;;;17.95;88.59
33795;BME280;51430;52.242;21.118;2022-08-30T01:26:56;100490.63;;;17.95;88.58
33795;BME280;51430;52.242;21.118;2022-08-30T01:29:25;100489.30;;;17.80;88.93
33795;BME280;51430;52.242;21.118;2022-08-30T01:31:53;100486.54;;;17.87;88.96
33795;BME280;51430;52.242;21.118;2022-08-30T01:34:21;100485.33;;;17.84;89.05
33795;BME280;51430;52.242;21.118;2022-08-30T01:36:50;100482.64;;;17.81;89.32
33795;BME280;51430;52.242;21.118;2022-08-30T01:39:18;100476.59;;;17.76;89.51
33795;BME280;51430;52.242;21.118;2022-08-30T01:41:46;100483.09;;;17.73;89.73
33795;BME280;51430;52.242;21.118;2022-08-30T01:44:15;100482.80;;;17.78;89.79
33795;BME280;51430;52.242;21.118;2022-08-30T01:46:46;100485.79;;;17.71;90.12
33795;BME280;51430;52.242;21.118;2022-08-30T01:49:17;100486.95;;;17.69;90.52
33795;BME280;51430;52.242;21.118;2022-08-30T01:51:55;100493.52;;;17.70;90.43
33795;BME280;51430;52.242;21.118;2022-08-30T01:54:33;100493.23;;;17.69;90.67
33795;BME280;51430;52.242;21.118;2022-08-30T01:57:12;100487.80;;;17.71;90.36
33795;BME280;51430;52.242;21.118;2022-08-30T01:59:49;100487.53;;;17.61;90.80
33795;BME280;51430;52.242;21.118;2022-08-30T02:02:21;100484.86;;;17.51;91.14
33795;BME280;51430;52.242;21.118;2022-08-30T02:04:52;100483.59;;;17.43;91.63
33795;BME280;51430;52.242;21.118;2022-08-30T02:07:22;100486.09;;;17.44;91.62
33795;BME280;51430;52.242;21.118;2022-08-30T02:09:51;100485.33;;;17.45;91.57
33795;BME280;51430;52.242;21.118;2022-08-30T02:12:20;100484.84;;;17.41;91.76
33795;BME280;51430;52.242;21.118;2022-08-30T02:14:48;100486.19;;;17.40;92.23
33795;BME280;51430;52.242;21.118;2022-08-30T02:17:16;100485.25;;;17.35;92.22
33795;BME280;51430;52.242;21.118;2022-08-30T02:19:46;100485.11;;;17.28;92.85
33795;BME280;51430;52.242;21.118;2022-08-30T02:22:14;100483.80;;;17.25;92.77
33795;BME280;51430;52.242;21.118;2022-08-30T02:24:43;100487.41;;;17.28;93.02
33795;BME280;51430;52.242;21.118;2022-08-30T02:27:11;100486.86;;;17.28;93.00
33795;BME280;51430;52.242;21.118;2022-08-30T02:29:39;100487.36;;;17.23;93.62
33795;BME280;51430;52.242;21.118;2022-08-30T02:32:07;100489.30;;;17.28;93.85
33795;BME280;51430;52.242;21.118;2022-08-30T02:34:35;100491.45;;;17.33;93.34
33795;BME280;51430;52.242;21.118;2022-08-30T02:37:03;100491.70;;;17.34;93.51
33795;BME280;51430;52.242;21.118;2022-08-30T02:39:32;100489.22;;;17.21;93.80
33795;BME280;51430;52.242;21.118;2022-08-30T02:42:01;100492.81;;;17.23;93.78
33795;BME280;51430;52.242;21.118;2022-08-30T02:44:29;100489.84;;;17.14;94.23
33795;BME280;51430;52.242;21.118;2022-08-30T02:46:57;100496.05;;;17.12;94.46
33795;BME280;51430;52.242;21.118;2022-08-30T02:49:25;100492.73;;;17.17;94.60
33795;BME280;51430;52.242;21.118;2022-08-30T02:52:03;100496.49;;;17.13;94.70
33795;BME280;51430;52.242;21.118;2022-08-30T02:54:32;100497.48;;;17.10;94.94
33795;BME280;51430;52.242;21.118;2022-08-30T02:57:00;100500.65;;;17.12;94.87
33795;BME280;51430;52.242;21.118;2022-08-30T02:59:32;100497.60;;;17.18;94.80
33795;BME280;51430;52.242;21.118;2022-08-30T03:02:00;100499.86;;;17.13;94.74
33795;BME280;51430;52.242;21.118;2022-08-30T03:04:28;100503.12;;;17.15;94.74
33795;BME280;51430;52.242;21.118;2022-08-30T03:06:56;100505.55;;;17.09;94.99
33795;BME280;51430;52.242;21.118;2022-08-30T03:09:25;100503.54;;;16.98;95.50
33795;BME280;51430;52.242;21.118;2022-08-30T03:11:54;100502.55;;;16.90;95.54
33795;BME280;51430;52.242;21.118;2022-08-30T03:14:21;100505.33;;;17.09;95.27
33795;BME280;51430;52.242;21.118;2022-08-30T03:16:50;100502.57;;;16.97;95.61
33795;BME280;51430;52.242;21.118;2022-08-30T03:19:19;100504.89;;;16.90;95.82
33795;BME280;51430;52.242;21.118;2022-08-30T03:21:47;100513.76;;;16.99;95.70
33795;BME280;51430;52.242;21.118;2022-08-30T03:24:16;100513.96;;;17.16;95.04
33795;BME280;51430;52.242;21.118;2022-08-30T03:26:45;100518.92;;;16.93;95.54
33795;BME280;51430;52.242;21.118;2022-08-30T03:29:13;100518.19;;;16.89;96.12
33795;BME280;51430;52.242;21.118;2022-08-30T03:31:41;100518.29;;;16.86;96.24
33795;BME280;51430;52.242;21.118;2022-08-30T03:34:21;100515.39;;;16.87;96.31
33795;BME280;51430;52.242;21.118;2022-08-30T03:36:51;100519.02;;;16.79;96.57
33795;BME280;51430;52.242;21.118;2022-08-30T03:39:21;100518.55;;;16.75;96.94
33795;BME280;51430;52.242;21.118;2022-08-30T03:41:51;100511.83;;;16.77;96.58
33795;BME280;51430;52.242;21.118;2022-08-30T03:44:20;100507.70;;;16.72;97.19
33795;BME280;51430;52.242;21.118;2022-08-30T03:46:49;100509.52;;;16.80;96.71
33795;BME280;51430;52.242;21.118;2022-08-30T03:49:18;100507.83;;;16.76;96.93
33795;BME280;51430;52.242;21.118;2022-08-30T03:51:47;100507.70;;;16.76;96.93
33795;BME280;51430;52.242;21.118;2022-08-30T03:54:15;100509.83;;;16.79;96.90
33795;BME280;51430;52.242;21.118;2022-08-30T03:56:43;100512.44;;;16.81;96.63
33795;BME280;51430;52.242;21.118;2022-08-30T03:59:11;100511.90;;;16.77;97.02
33795;BME280;51430;52.242;21.118;2022-08-30T04:01:39;100512.92;;;16.80;96.95
33795;BME280;51430;52.242;21.118;2022-08-30T04:04:08;100520.81;;;16.83;96.72
33795;BME280;51430;52.242;21.118;2022-08-30T04:06:36;100517.98;;;16.85;96.50
33795;BME280;51430;52.242;21.118;2022-08-30T04:09:05;100521.03;;;16.92;96.36
33795;BME280;51430;52.242;21.118;2022-08-30T04:11:33;100521.92;;;16.97;95.91
33795;BME280;51430;52.242;21.118;2022-08-30T04:14:01;100518.13;;;16.94;95.92
33795;BME280;51430;52.242;21.118;2022-08-30T04:16:29;100515.33;;;16.80;96.40
33795;BME280;51430;52.242;21.118;2022-08-30T04:18:57;100517.69;;;16.85;96.87
33795;BME280;51430;52.242;21.118;2022-08-30T04:21:25;100522.20;;;17.01;96.03
33795;BME280;51430;52.242;21.118;2022-08-30T04:23:53;100525.60;;;17.02;95.85
33795;BME280;51430;52.242;21.118;2022-08-30T04:26:21;100527.04;;;17.00;95.88
33795;BME280;51430;52.242;21.118;2022-08-30T04:28:55;100529.16;;;17.00;95.98
33795;BME280;51430;52.242;21.118;2022-08-30T04:31:23;100532.55;;;17.03;96.01
33795;BME280;51430;52.242;21.118;2022-08-30T04:33:51;100533.46;;;17.17;95.90
33795;BME280;51430;52.242;21.118;2022-08-30T04:36:19;100535.82;;;17.39;94.10
33795;BME280;51430;52.242;21.118;2022-08-30T04:38:47;100532.39;;;17.38;93.64
33795;BME280;51430;52.242;21.118;2022-08-30T04:41:17;100536.23;;;17.30;93.98
33795;BME280;51430;52.242;21.118;2022-08-30T04:43:47;100538.96;;;17.32;93.97
33795;BME280;51430;52.242;21.118;2022-08-30T04:46:18;100541.80;;;17.37;93.89
33795;BME280;51430;52.242;21.118;2022-08-30T04:48:46;100550.98;;;17.44;93.82
33795;BME280;51430;52.242;21.118;2022-08-30T04:51:16;100549.67;;;17.52;93.45
33795;BME280;51430;52.242;21.118;2022-08-30T04:53:44;100552.19;;;17.65;92.15
33795;BME280;51430;52.242;21.118;2022-08-30T04:56:17;100554.09;;;17.62;91.91
33795;BME280;51430;52.242;21.118;2022-08-30T04:58:47;100553.49;;;17.58;92.23
33795;BME280;51430;52.242;21.118;2022-08-30T05:01:22;100555.08;;;17.67;91.89
33795;BME280;51430;52.242;21.118;2022-08-30T05:03:52;100560.85;;;17.70;91.12
33795;BME280;51430;52.242;21.118;2022-08-30T05:06:21;100564.92;;;17.63;91.20
33795;BME280;51430;52.242;21.118;2022-08-30T05:08:50;100566.48;;;17.58;91.27
33795;BME280;51430;52.242;21.118;2022-08-30T05:11:20;100567.86;;;17.57;91.75
33795;BME280;51430;52.242;21.118;2022-08-30T05:13:48;100571.84;;;17.66;90.89
33795;BME280;51430;52.242;21.118;2022-08-30T05:16:16;100572.23;;;17.67;90.94
33795;BME280;51430;52.242;21.118;2022-08-30T05:18:48;100574.38;;;17.60;90.93
33795;BME280;51430;52.242;21.118;2022-08-30T05:21:23;100571.89;;;17.69;90.75
33795;BME280;51430;52.242;21.118;2022-08-30T05:23:54;100568.42;;;17.75;90.18
33795;BME280;51430;52.242;21.118;2022-08-30T05:26:26;100571.28;;;17.82;90.22
33795;BME280;51430;52.242;21.118;2022-08-30T05:28:55;100576.11;;;17.95;89.38
33795;BME280;51430;52.242;21.118;2022-08-30T05:31:26;100573.69;;;18.01;88.96
33795;BME280;51430;52.242;21.118;2022-08-30T05:33:55;100573.56;;;18.07;88.83
33795;BME280;51430;52.242;21.118;2022-08-30T05:36:26;100578.24;;;18.18;88.37
33795;BME280;51430;52.242;21.118;2022-08-30T05:38:56;100580.80;;;18.29;87.57
33795;BME280;51430;52.242;21.118;2022-08-30T05:41:25;100579.10;;;18.30;87.49
33795;BME280;51430;52.242;21.118;2022-08-30T05:43:55;100577.64;;;18.46;86.15
33795;BME280;51430;52.242;21.118;2022-08-30T05:46:27;100574.70;;;18.50;85.69
33795;BME280;51430;52.242;21.118;2022-08-30T05:49:06;100574.19;;;18.55;86.19
33795;BME280;51430;52.242;21.118;2022-08-30T05:51:35;100576.14;;;18.77;84.40
33795;BME280;51430;52.242;21.118;2022-08-30T05:54:12;100581.36;;;19.19;83.38
33795;BME280;51430;52.242;21.118;2022-08-30T05:56:42;100584.27;;;20.20;79.74
33795;BME280;51430;52.242;21.118;2022-08-30T05:59:13;100586.04;;;20.50;78.05
33795;BME280;51430;52.242;21.118;2022-08-30T06:01:44;100582.19;;;20.60;77.94
33795;BME280;51430;52.242;21.118;2022-08-30T06:04:13;100584.55;;;20.49;77.10
33795;BME280;51430;52.242;21.118;2022-08-30T06:06:42;100583.59;;;20.39;77.37
33795;BME280;51430;52.242;21.118;2022-08-30T06:09:11;100585.81;;;20.33;76.56
33795;BME280;51430;52.242;21.118;2022-08-30T06:11:41;100589.34;;;20.24;77.13
33795;BME280;51430;52.242;21.118;2022-08-30T06:14:09;100587.67;;;20.25;76.37
33795;BME280;51430;52.242;21.118;2022-08-30T06:16:38;100587.27;;;20.16;77.20
33795;BME280;51430;52.242;21.118;2022-08-30T06:19:07;100591.06;;;20.32;77.14
33795;BME280;51430;52.242;21.118;2022-08-30T06:21:39;100587.02;;;20.46;76.29
33795;BME280;51430;52.242;21.118;2022-08-30T06:24:09;100584.36;;;20.67;75.93
33795;BME280;51430;52.242;21.118;2022-08-30T06:26:41;100583.30;;;20.99;75.02
33795;BME280;51430;52.242;21.118;2022-08-30T06:29:13;100592.45;;;21.20;73.21
33795;BME280;51430;52.242;21.118;2022-08-30T06:31:42;100593.84;;;20.86;74.22
33795;BME280;51430;52.242;21.118;2022-08-30T06:34:10;100597.96;;;20.77;75.31
33795;BME280;51430;52.242;21.118;2022-08-30T06:36:41;100596.65;;;20.93;74.23
33795;BME280;51430;52.242;21.118;2022-08-30T06:39:09;100603.14;;;20.78;73.92
33795;BME280;51430;52.242;21.118;2022-08-30T06:41:39;100602.81;;;20.56;75.46
33795;BME280;51430;52.242;21.118;2022-08-30T06:44:07;100601.02;;;20.79;75.75
33795;BME280;51430;52.242;21.118;2022-08-30T06:46:37;100602.90;;;21.11;74.85
33795;BME280;51430;52.242;21.118;2022-08-30T06:49:06;100605.18;;;21.55;73.00
33795;BME280;51430;52.242;21.118;2022-08-30T06:51:39;100612.39;;;21.86;69.92
33795;BME280;51430;52.242;21.118;2022-08-30T06:54:09;100613.15;;;21.49;70.83
33795;BME280;51430;52.242;21.118;2022-08-30T06:56:39;100614.85;;;21.25;72.19
33795;BME280;51430;52.242;21.118;2022-08-30T06:59:22;100618.89;;;21.24;71.21
33795;BME280;51430;52.242;21.118;2022-08-30T07:01:49;100618.17;;;20.98;72.32
33795;BME280;51430;52.242;21.118;2022-08-30T07:04:18;100622.52;;;21.05;72.19
33795;BME280;51430;52.242;21.118;2022-08-30T07:06:45;100624.33;;;21.22;72.62
33795;BME280;51430;52.242;21.118;2022-08-30T07:09:13;100627.52;;;21.35;71.99
33795;BME280;51430;52.242;21.118;2022-08-30T07:11:41;100634.64;;;21.20;71.15
33795;BME280;51430;52.242;21.118;2022-08-30T07:14:10;100639.07;;;20.89;72.69
33795;BME280;51430;52.242;21.118;2022-08-30T07:16:37;100633.45;;;21.01;72.68
33795;BME280;51430;52.242;21.118;2022-08-30T07:19:05;100637.15;;;21.15;71.56
33795;BME280;51430;52.242;21.118;2022-08-30T07:21:39;100643.81;;;21.23;71.85
33795;BME280;51430;52.242;21.118;2022-08-30T07:24:11;100643.41;;;21.13;72.06
33795;BME280;51430;52.242;21.118;2022-08-30T07:26:43;100651.54;;;21.21;71.56
33795;BME280;51430;52.242;21.118;2022-08-30T07:29:15;100652.09;;;21.09;71.85
33795;BME280;51430;52.242;21.118;2022-08-30T07:31:43;100648.05;;;21.15;71.46
33795;BME280;51430;52.242;21.118;2022-08-30T07:34:12;100652.48;;;20.93;71.71
33795;BME280;51430;52.242;21.118;2022-08-30T07:36:40;100650.41;;;20.88;72.38
33795;BME280;51430;52.242;21.118;2022-08-30T07:39:08;100652.27;;;20.81;72.74
33795;BME280;51430;52.242;21.118;2022-08-30T07:41:37;100654.37;;;20.62;73.05
33795;BME280;51430;52.242;21.118;2022-08-30T07:44:08;100659.38;;;20.59;73.75
33795;BME280;51430;52.242;21.118;2022-08-30T07:46:37;100663.42;;;20.53;73.82
33795;BME280;51430;52.242;21.118;2022-08-30T07:49:08;100661.56;;;20.30;75.00
33795;BME280;51430;52.242;21.118;2022-08-30T07:51:39;100662.84;;;20.27;75.24
33795;BME280;51430;52.242;21.118;2022-08-30T07:54:07;100666.05;;;20.43;75.17
33795;BME280;51430;52.242;21.118;2022-08-30T07:56:36;100667.89;;;20.73;74.76
33795;BME280;51430;52.242;21.118;2022-08-30T07:59:04;100674.04;;;20.96;74.06
33795;BME280;51430;52.242;21.118;2022-08-30T08:01:32;100668.49;;;21.26;72.97
33795;BME280;51430;52.242;21.118;2022-08-30T08:04:00;100667.61;;;21.49;72.18
33795;BME280;51430;52.242;21.118;2022-08-30T08:06:29;100665.82;;;21.74;71.55
33795;BME280;51430;52.242;21.118;2022-08-30T08:09:02;100668.88;;;22.08;69.60
33795;BME280;51430;52.242;21.118;2022-08-30T08:11:32;100674.24;;;22.24;68.51
33795;BME280;51430;52.242;21.118;2022-08-30T08:14:02;100679.09;;;22.32;67.93
33795;BME280;51430;52.242;21.118;2022-08-30T08:16:33;100678.48;;;22.24;68.46
33795;BME280;51430;52.242;21.118;2022-08-30T08:19:02;100680.31;;;22.21;68.00
33795;BME280;51430;52.242;21.118;2022-08-30T08:21:31;100677.38;;;21.92;68.41
33795;BME280;51430;52.242;21.118;2022-08-30T08:23:59;100679.43;;;21.91;68.85
33795;BME280;51430;52.242;21.118;2022-08-30T08:26:27;100681.05;;;22.00;68.34
33795;BME280;51430;52.242;21.118;2022-08-30T08:28:56;100679.33;;;22.03;68.34
33795;BME280;51430;52.242;21.118;2022-08-30T08:31:26;100686.80;;;22.20;68.29
33795;BME280;51430;52.242;21.118;2022-08-30T08:34:02;100684.19;;;22.49;67.59
33795;BME280;51430;52.242;21.118;2022-08-30T08:36:34;100687.19;;;22.72;65.99
33795;BME280;51430;52.242;21.118;2022-08-30T08:39:04;100684.95;;;22.74;66.85
33795;BME280;51430;52.242;21.118;2022-08-30T08:41:52;100690.93;;;22.96;66.35
33795;BME280;51430;52.242;21.118;2022-08-30T08:44:56;100694.84;;;22.94;65.03
33795;BME280;51430;52.242;21.118;2022-08-30T08:50:19;100695.69;;;22.75;66.94
33795;BME280;51430;52.242;21.118;2022-08-30T08:53:08;100698.44;;;22.95;66.13
33795;BME280;51430;52.242;21.118;2022-08-30T08:56:15;100703.10;;;22.91;65.06
33795;BME280;51430;52.242;21.118;2022-08-30T08:58:48;100703.34;;;22.78;65.66
33795;BME280;51430;52.242;21.118;2022-08-30T09:01:20;100702.98;;;23.21;65.07
33795;BME280;51430;52.242;21.118;2022-08-30T09:03:50;100699.70;;;23.80;64.04
33795;BME280;51430;52.242;21.118;2022-08-30T09:09:12;100703.70;;;24.28;60.21
33795;BME280;51430;52.242;21.118;2022-08-30T09:11:41;100704.14;;;24.65;59.71
33795;BME280;51430;52.242;21.118;2022-08-30T09:14:18;100703.04;;;24.99;58.97
33795;BME280;51430;52.242;21.118;2022-08-30T09:17:01;100706.89;;;24.83;59.01
33795;BME280;51430;52.242;21.118;2022-08-30T09:22:21;100703.71;;;24.31;60.43
33795;BME280;51430;52.242;21.118;2022-08-30T09:25:48;100700.11;;;24.22;60.71
33795;BME280;51430;52.242;21.118;2022-08-30T09:27:51;100702.69;;;24.26;60.92
33795;BME280;51430;52.242;21.118;2022-08-30T09:30:34;100705.44;;;24.61;58.91
33795;BME280;51430;52.242;21.118;2022-08-30T09:33:05;100704.59;;;24.54;58.56
33795;BME280;51430;52.242;21.118;2022-08-30T09:35:49;100701.13;;;24.47;58.77
33795;BME280;51430;52.242;21.118;2022-08-30T09:38:30;100711.75;;;24.48;59.19
33795;BME280;51430;52.242;21.118;2022-08-30T09:41:27;100712.61;;;24.40;58.70
33795;BME280;51430;52.242;21.118;2022-08-30T09:49:37;100712.70;;;23.79;60.95
33795;BME280;51430;52.242;21.118;2022-08-30T10:01:13;100712.70;;;23.72;61.49
33795;BME280;51430;52.242;21.118;2022-08-30T10:03:57;100709.63;;;23.75;60.86
33795;BME280;51430;52.242;21.118;2022-08-30T10:06:57;100708.24;;;23.93;61.15
33795;BME280;51430;52.242;21.118;2022-08-30T10:09:51;100712.84;;;24.18;59.73
33795;BME280;51430;52.242;21.118;2022-08-30T10:12:31;100712.56;;;24.15;59.44
33795;BME280;51430;52.242;21.118;2022-08-30T10:15:24;100712.42;;;24.25;59.39
33795;BME280;51430;52.242;21.118;2022-08-30T10:18:11;100714.27;;;24.41;58.44
33795;BME280;51430;52.242;21.118;2022-08-30T10:23:57;100721.55;;;24.36;58.23
33795;BME280;51430;52.242;21.118;2022-08-30T10:29:28;100716.30;;;23.93;60.22
33795;BME280;51430;52.242;21.118;2022-08-30T10:32:11;100717.80;;;23.74;60.35
33795;BME280;51430;52.242;21.118;2022-08-30T10:35:09;100721.77;;;23.21;61.58
33795;BME280;51430;52.242;21.118;2022-08-30T10:38:17;100720.71;;;22.98;62.38
33795;BME280;51430;52.242;21.118;2022-08-30T10:40:54;100723.90;;;23.04;62.47
33795;BME280;51430;52.242;21.118;2022-08-30T10:46:17;100722.55;;;22.74;63.37
33795;BME280;51430;52.242;21.118;2022-08-30T10:48:46;100719.97;;;22.79;63.40
33795;BME280;51430;52.242;21.118;2022-08-30T10:54:52;100723.62;;;22.75;63.32
33795;BME280;51430;52.242;21.118;2022-08-30T10:57:21;100721.89;;;22.72;62.97
33795;BME280;51430;52.242;21.118;2022-08-30T11:11:28;100726.40;;;22.42;64.92
33795;BME280;51430;52.242;21.118;2022-08-30T11:14:01;100726.79;;;22.58;63.92
33795;BME280;51430;52.242;21.118;2022-08-30T11:16:38;100722.58;;;22.62;63.61
33795;BME280;51430;52.242;21.118;2022-08-30T11:19:25;100721.16;;;22.82;63.30
33795;BME280;51430;52.242;21.118;2022-08-30T11:22:17;100724.73;;;23.04;62.74
33795;BME280;51430;52.242;21.118;2022-08-30T11:25:15;100724.73;;;23.07;62.78
33795;BME280;51430;52.242;21.118;2022-08-30T11:28:05;100725.64;;;23.11;61.87
33795;BME280;51430;52.242;21.118;2022-08-30T11:48:53;100730.66;;;23.57;59.35
33795;BME280;51430;52.242;21.118;2022-08-30T11:54:19;100733.73;;;23.53;59.30
33795;BME280;51430;52.242;21.118;2022-08-30T12:02:06;100725.89;;;23.87;58.60
33795;BME280;51430;52.242;21.118;2022-08-30T12:04:42;100728.64;;;23.77;58.59
33795;BME280;51430;52.242;21.118;2022-08-30T12:10:24;100721.77;;;23.80;59.00
33795;BME280;51430;52.242;21.118;2022-08-30T12:13:02;100721.34;;;23.79;58.54
33795;BME280;51430;52.242;21.118;2022-08-30T12:18:28;100714.34;;;24.02;58.61
33795;BME280;51430;52.242;21.118;2022-08-30T12:26:47;100709.76;;;24.20;58.07
33795;BME280;51430;52.242;21.118;2022-08-30T12:32:12;100712.26;;;24.36;55.09
33795;BME280;51430;52.242;21.118;2022-08-30T12:39:59;100701.48;;;24.57;54.60
33795;BME280;51430;52.242;21.118;2022-08-30T12:42:31;100699.54;;;24.27;55.25
33795;BME280;51430;52.242;21.118;2022-08-30T12:45:10;100692.89;;;24.08;56.00
33795;BME280;51430;52.242;21.118;2022-08-30T12:47:44;100688.73;;;24.41;56.02
33795;BME280;51430;52.242;21.118;2022-08-30T12:50:22;100691.39;;;24.70;55.53
33795;BME280;51430;52.242;21.118;2022-08-30T12:53:02;100695.50;;;24.90;55.21
33795;BME280;51430;52.242;21.118;2022-08-30T12:55:34;100694.21;;;25.18;53.87
33795;BME280;51430;52.242;21.118;2022-08-30T12:58:09;100695.91;;;25.12;53.64
33795;BME280;51430;52.242;21.118;2022-08-30T13:00:39;100690.70;;;25.37;53.79
33795;BME280;51430;52.242;21.118;2022-08-30T13:03:32;100684.77;;;26.06;52.94
33795;BME280;51430;52.242;21.118;2022-08-30T13:06:00;100683.55;;;26.50;50.14
33795;BME280;51430;52.242;21.118;2022-08-30T13:13:36;100685.98;;;25.84;52.12
33795;BME280;51430;52.242;21.118;2022-08-30T13:18:46;100686.09;;;25.35;50.78
33795;BME280;51430;52.242;21.118;2022-08-30T13:21:33;100692.44;;;24.95;51.34
33795;BME280;51430;52.242;21.118;2022-08-30T13:24:04;100692.10;;;24.62;52.18
33795;BME280;51430;52.242;21.118;2022-08-30T13:26:36;100690.33;;;24.41;52.64
33795;BME280;51430;52.242;21.118;2022-08-30T13:29:14;100689.17;;;24.08;53.22
33795;BME280;51430;52.242;21.118;2022-08-30T13:31:43;100681.05;;;24.04;53.71
33795;BME280;51430;52.242;21.118;2022-08-30T13:34:11;100683.49;;;23.97;54.17
33795;BME280;51430;52.242;21.118;2022-08-30T13:36:45;100683.69;;;23.77;54.91
33795;BME280;51430;52.242;21.118;2022-08-30T13:39:14;100679.34;;;23.47;55.53
33795;BME280;51430;52.242;21.118;2022-08-30T13:41:49;100681.69;;;23.17;56.18
33795;BME280;51430;52.242;21.118;2022-08-30T13:44:18;100681.46;;;23.00;56.70
33795;BME280;51430;52.242;21.118;2022-08-30T13:46:53;100683.36;;;22.85;58.11
33795;BME280;51430;52.242;21.118;2022-08-30T13:49:41;100678.84;;;22.94;58.08
33795;BME280;51430;52.242;21.118;2022-08-30T13:52:15;100682.55;;;22.88;58.59
33795;BME280;51430;52.242;21.118;2022-08-30T13:54:51;100679.77;;;22.78;59.03
33795;BME280;51430;52.242;21.118;2022-08-30T13:57:22;100674.70;;;22.84;58.42
33795;BME280;51430;52.242;21.118;2022-08-30T14:00:14;100674.23;;;22.76;59.16
33795;BME280;51430;52.242;21.118;2022-08-30T14:02:48;100672.02;;;22.74;59.11
33795;BME280;51430;52.242;21.118;2022-08-30T14:05:30;100671.85;;;22.73;59.97
33795;BME280;51430;52.242;21.118;2022-08-30T14:08:23;100670.24;;;22.80;59.56
33795;BME280;51430;52.242;21.118;2022-08-30T14:11:13;100669.38;;;22.93;59.32
33795;BME280;51430;52.242;21.118;2022-08-30T14:13:46;100671.08;;;22.92;59.76
33795;BME280;51430;52.242;21.118;2022-08-30T14:16:37;100670.33;;;23.15;59.33
33795;BME280;51430;52.242;21.118;2022-08-30T14:19:06;100667.90;;;23.21;59.74
33795;BME280;51430;52.242;21.118;2022-08-30T14:21:34;100665.39;;;23.29;59.19
33795;BME280;51430;52.242;21.118;2022-08-30T14:24:02;100664.89;;;23.32;59.15
33795;BME280;51430;52.242;21.118;2022-08-30T14:26:51;100665.89;;;23.38;58.51
33795;BME280;51430;52.242;21.118;2022-08-30T14:29:22;100666.77;;;23.56;58.57
33795;BME280;51430;52.242;21.118;2022-08-30T14:31:55;100666.86;;;23.95;57.76
33795;BME280;51430;52.242;21.118;2022-08-30T14:34:27;100670.52;;;24.43;55.65
33795;BME280;51430;52.242;21.118;2022-08-30T14:36:55;100673.14;;;24.68;54.86
33795;BME280;51430;52.242;21.118;2022-08-30T14:39:23;100675.27;;;24.85;53.82
33795;BME280;51430;52.242;21.118;2022-08-30T14:41:54;100673.55;;;25.74;51.97
33795;BME280;51430;52.242;21.118;2022-08-30T14:44:23;100678.48;;;28.25;47.23
33795;BME280;51430;52.242;21.118;2022-08-30T14:46:52;100679.98;;;29.90;42.46
33795;BME280;51430;52.242;21.118;2022-08-30T14:49:21;100687.15;;;29.22;43.78
33795;BME280;51430;52.242;21.118;2022-08-30T14:51:50;100682.16;;;28.08;44.98